sensor_id;sensor_type;location;lat;lon;timestamp;P1;durP1;ratioP1;P2;durP2;ratioP2
46755;SDS011;32506;52.826;-1.192;2024-03-08T00:00:21;26.13;;;14.48;;
46755;SDS011;32506;52.826;-1.192;2024-03-08T00:02:47;23.98;;;13.27;;
46755;SDS011;32506;52.826;-1.192;2024-03-08T00:05:15;23.38;;;13.38;;
46755;SDS011;32506;52.826;-1.192;2024-03-08T00:07:43;25.38;;;15.13;;
46755;SDS011;32506;52.826;-1.192;2024-03-08T00:10:12;24.85;;;14.35;;
46755;SDS011;32506;52.826;-1.192;2024-03-08T00:12:39;22.42;;;14.18;;
46755;SDS011;32506;52.826;-1.192;2024-03-08T00:15:15;25.52;;;15.77;;
46755;SDS011;32506;52.826;-1.192;2024-03-08T00:17:44;25.63;;;14.88;;
46755;SDS011;32506;52.826;-1.192;2024-03-08T00:20:10;26.50;;;14.85;;
46755;SDS011;32506;52.826;-1.192;2024-03-08T00:22:37;28.02;;;15.43;;
46755;SDS011;32506;52.826;-1.192;2024-03-08T00:25:03;27.80;;;16.48;;
46755;SDS011;32506;52.826;-1.192;2024-03-08T00:27:30;24.00;;;14.45;;
46755;SDS011;32506;52.826;-1.192;2024-03-08T00:29:56;26.33;;;15.68;;
46755;SDS011;32506;52.826;-1.192;2024-03-08T00:32:27;26.20;;;14.73;;
46755;SDS011;32506;52.826;-1.192;2024-03-08T00:34:56;31.13;;;15.07;;
46755;SDS011;32506;52.826;-1.192;2024-03-08T00:37:22;28.13;;;15.50;;
46755;SDS011;32506;52.826;-1.192;2024-03-08T00:39:53;29.75;;;15.50;;
46755;SDS011;32506;52.826;-1.192;2024-03-08T00:42:21;23.52;;;14.77;;
46755;SDS011;32506;52.826;-1.192;2024-03-08T00:44:46;26.27;;;15.50;;
46755;SDS011;32506;52.826;-1.192;2024-03-08T00:47:17;26.77;;;15.05;;
46755;SDS011;32506;52.826;-1.192;2024-03-08T00:49:43;25.42;;;15.68;;
46755;SDS011;32506;52.826;-1.192;2024-03-08T00:52:09;27.20;;;16.48;;
46755;SDS011;32506;52.826;-1.192;2024-03-08T00:54:35;26.35;;;15.57;;
46755;SDS011;32506;52.826;-1.192;2024-03-08T00:57:01;22.05;;;15.00;;
46755;SDS011;32506;52.826;-1.192;2024-03-08T00:59:28;21.95;;;13.75;;
46755;SDS011;32506;52.826;-1.192;2024-03-08T01:01:58;27.85;;;15.82;;
46755;SDS011;32506;52.826;-1.192;2024-03-08T01:04:24;29.80;;;16.23;;
46755;SDS011;32506;52.826;-1.192;2024-03-08T01:06:57;29.13;;;16.48;;
46755;SDS011;32506;52.826;-1.192;2024-03-08T01:09:23;29.00;;;15.93;;
46755;SDS011;32506;52.826;-1.192;2024-03-08T01:11:52;28.55;;;15.45;;
46755;SDS011;32506;52.826;-1.192;2024-03-08T01:14:19;30.85;;;15.52;;
46755;SDS011;32506;52.826;-1.192;2024-03-08T01:16:49;29.63;;;16.25;;
46755;SDS011;32506;52.826;-1.192;2024-03-08T01:19:15;24.60;;;15.48;;
46755;SDS011;32506;52.826;-1.192;2024-03-08T01:21:48;28.73;;;14.68;;
46755;SDS011;32506;52.826;-1.192;2024-03-08T01:24:26;23.48;;;15.10;;
46755;SDS011;32506;52.826;-1.192;2024-03-08T01:26:52;27.83;;;14.82;;
46755;SDS011;32506;52.826;-1.192;2024-03-08T01:29:20;29.30;;;14.93;;
46755;SDS011;32506;52.826;-1.192;2024-03-08T01:31:49;27.17;;;15.63;;
46755;SDS011;32506;52.826;-1.192;2024-03-08T01:34:14;26.27;;;14.98;;
46755;SDS011;32506;52.826;-1.192;2024-03-08T01:36:40;26.45;;;14.45;;
46755;SDS011;32506;52.826;-1.192;2024-03-08T01:39:05;24.67;;;14.55;;
46755;SDS011;32506;52.826;-1.192;2024-03-08T01:41:33;26.10;;;14.85;;
46755;SDS011;32506;52.826;-1.192;2024-03-08T01:44:00;27.77;;;15.50;;
46755;SDS011;32506;52.826;-1.192;2024-03-08T01:46:25;25.02;;;14.95;;
46755;SDS011;32506;52.826;-1.192;2024-03-08T01:48:54;30.60;;;15.73;;
46755;SDS011;32506;52.826;-1.192;2024-03-08T01:51:23;28.17;;;16.15;;
46755;SDS011;32506;52.826;-1.192;2024-03-08T01:53:48;28.55;;;15.68;;
46755;SDS011;32506;52.826;-1.192;2024-03-08T01:56:17;30.02;;;15.15;;
46755;SDS011;32506;52.826;-1.192;2024-03-08T01:58:45;27.50;;;15.68;;
46755;SDS011;32506;52.826;-1.192;2024-03-08T02:01:14;26.27;;;15.23;;
46755;SDS011;32506;52.826;-1.192;2024-03-08T02:03:41;27.83;;;14.95;;
46755;SDS011;32506;52.826;-1.192;2024-03-08T02:06:09;27.98;;;14.82;;
46755;SDS011;32506;52.826;-1.192;2024-03-08T02:08:41;24.65;;;15.30;;
46755;SDS011;32506;52.826;-1.192;2024-03-08T02:11:07;23.67;;;15.27;;
46755;SDS011;32506;52.826;-1.192;2024-03-08T02:13:33;29.20;;;15.32;;
46755;SDS011;32506;52.826;-1.192;2024-03-08T02:16:06;30.02;;;15.52;;
46755;SDS011;32506;52.826;-1.192;2024-03-08T02:18:33;26.00;;;15.15;;
46755;SDS011;32506;52.826;-1.192;2024-03-08T02:21:05;24.33;;;14.48;;
46755;SDS011;32506;52.826;-1.192;2024-03-08T02:23:31;26.27;;;14.50;;
46755;SDS011;32506;52.826;-1.192;2024-03-08T02:26:00;29.52;;;15.75;;
46755;SDS011;32506;52.826;-1.192;2024-03-08T02:28:29;29.58;;;16.27;;
46755;SDS011;32506;52.826;-1.192;2024-03-08T02:30:55;28.65;;;15.85;;
46755;SDS011;32506;52.826;-1.192;2024-03-08T02:33:22;26.80;;;15.35;;
46755;SDS011;32506;52.826;-1.192;2024-03-08T02:35:48;27.95;;;15.80;;
46755;SDS011;32506;52.826;-1.192;2024-03-08T02:38:15;27.58;;;15.85;;
46755;SDS011;32506;52.826;-1.192;2024-03-08T02:40:45;26.58;;;16.48;;
46755;SDS011;32506;52.826;-1.192;2024-03-08T02:43:12;26.88;;;15.68;;
46755;SDS011;32506;52.826;-1.192;2024-03-08T02:45:45;25.08;;;15.32;;
46755;SDS011;32506;52.826;-1.192;2024-03-08T02:48:11;25.48;;;15.75;;
46755;SDS011;32506;52.826;-1.192;2024-03-08T02:50:46;27.27;;;15.27;;
46755;SDS011;32506;52.826;-1.192;2024-03-08T02:53:15;29.33;;;17.42;;
46755;SDS011;32506;52.826;-1.192;2024-03-08T02:55:41;29.85;;;17.60;;
46755;SDS011;32506;52.826;-1.192;2024-03-08T02:58:10;28.40;;;16.95;;
46755;SDS011;32506;52.826;-1.192;2024-03-08T03:00:36;26.70;;;17.02;;
46755;SDS011;32506;52.826;-1.192;2024-03-08T03:03:03;31.38;;;18.08;;
46755;SDS011;32506;52.826;-1.192;2024-03-08T03:05:34;31.38;;;19.35;;
46755;SDS011;32506;52.826;-1.192;2024-03-08T03:08:00;31.60;;;17.83;;
46755;SDS011;32506;52.826;-1.192;2024-03-08T03:10:36;36.00;;;18.70;;
46755;SDS011;32506;52.826;-1.192;2024-03-08T03:13:02;32.65;;;18.85;;
46755;SDS011;32506;52.826;-1.192;2024-03-08T03:15:29;32.13;;;17.88;;
46755;SDS011;32506;52.826;-1.192;2024-03-08T03:17:55;30.30;;;18.50;;
46755;SDS011;32506;52.826;-1.192;2024-03-08T03:20:23;32.65;;;18.77;;
46755;SDS011;32506;52.826;-1.192;2024-03-08T03:22:57;31.80;;;18.35;;
46755;SDS011;32506;52.826;-1.192;2024-03-08T03:25:23;35.40;;;18.88;;
46755;SDS011;32506;52.826;-1.192;2024-03-08T03:27:54;30.55;;;18.75;;
46755;SDS011;32506;52.826;-1.192;2024-03-08T03:30:24;34.35;;;18.60;;
46755;SDS011;32506;52.826;-1.192;2024-03-08T03:32:52;31.65;;;19.35;;
46755;SDS011;32506;52.826;-1.192;2024-03-08T03:35:22;33.60;;;19.60;;
46755;SDS011;32506;52.826;-1.192;2024-03-08T03:37:48;30.20;;;18.02;;
46755;SDS011;32506;52.826;-1.192;2024-03-08T03:40:30;31.02;;;17.90;;
46755;SDS011;32506;52.826;-1.192;2024-03-08T03:42:56;30.50;;;18.45;;
46755;SDS011;32506;52.826;-1.192;2024-03-08T03:45:22;37.75;;;19.23;;
46755;SDS011;32506;52.826;-1.192;2024-03-08T03:47:48;31.48;;;18.52;;
46755;SDS011;32506;52.826;-1.192;2024-03-08T03:50:14;33.85;;;19.17;;
46755;SDS011;32506;52.826;-1.192;2024-03-08T03:52:44;32.92;;;18.25;;
46755;SDS011;32506;52.826;-1.192;2024-03-08T03:55:10;35.88;;;19.98;;
46755;SDS011;32506;52.826;-1.192;2024-03-08T03:57:47;34.40;;;19.50;;
46755;SDS011;32506;52.826;-1.192;2024-03-08T04:00:15;33.42;;;20.05;;
46755;SDS011;32506;52.826;-1.192;2024-03-08T04:02:40;37.70;;;20.63;;
46755;SDS011;32506;52.826;-1.192;2024-03-08T04:05:07;37.60;;;18.65;;
46755;SDS011;32506;52.826;-1.192;2024-03-08T04:07:37;28.40;;;17.25;;
46755;SDS011;32506;52.826;-1.192;2024-03-08T04:10:03;35.47;;;19.98;;
46755;SDS011;32506;52.826;-1.192;2024-03-08T04:12:33;35.55;;;19.55;;
46755;SDS011;32506;52.826;-1.192;2024-03-08T04:15:02;36.50;;;20.63;;
46755;SDS011;32506;52.826;-1.192;2024-03-08T04:17:28;34.55;;;20.10;;
46755;SDS011;32506;52.826;-1.192;2024-03-08T04:19:56;35.72;;;20.98;;
46755;SDS011;32506;52.826;-1.192;2024-03-08T04:22:22;44.28;;;22.48;;
46755;SDS011;32506;52.826;-1.192;2024-03-08T04:24:50;36.70;;;20.20;;
46755;SDS011;32506;52.826;-1.192;2024-03-08T04:27:16;41.05;;;21.77;;
46755;SDS011;32506;52.826;-1.192;2024-03-08T04:29:41;37.65;;;20.23;;
46755;SDS011;32506;52.826;-1.192;2024-03-08T04:32:09;37.03;;;20.73;;
46755;SDS011;32506;52.826;-1.192;2024-03-08T04:34:38;34.60;;;19.88;;
46755;SDS011;32506;52.826;-1.192;2024-03-08T04:37:04;42.08;;;21.15;;
46755;SDS011;32506;52.826;-1.192;2024-03-08T04:39:29;37.00;;;20.65;;
46755;SDS011;32506;52.826;-1.192;2024-03-08T04:42:03;42.22;;;21.35;;
46755;SDS011;32506;52.826;-1.192;2024-03-08T04:44:35;37.03;;;21.00;;
46755;SDS011;32506;52.826;-1.192;2024-03-08T04:47:03;38.13;;;20.83;;
46755;SDS011;32506;52.826;-1.192;2024-03-08T04:49:35;36.05;;;20.50;;
46755;SDS011;32506;52.826;-1.192;2024-03-08T04:52:03;30.63;;;18.85;;
46755;SDS011;32506;52.826;-1.192;2024-03-08T04:54:30;33.05;;;18.45;;
46755;SDS011;32506;52.826;-1.192;2024-03-08T04:56:56;39.67;;;21.95;;
46755;SDS011;32506;52.826;-1.192;2024-03-08T04:59:22;41.60;;;21.63;;
46755;SDS011;32506;52.826;-1.192;2024-03-08T05:01:49;37.95;;;21.05;;
46755;SDS011;32506;52.826;-1.192;2024-03-08T05:04:14;39.35;;;20.48;;
46755;SDS011;32506;52.826;-1.192;2024-03-08T05:06:40;33.83;;;21.02;;
46755;SDS011;32506;52.826;-1.192;2024-03-08T05:09:06;35.28;;;19.83;;
46755;SDS011;32506;52.826;-1.192;2024-03-08T05:14:08;38.15;;;19.65;;
46755;SDS011;32506;52.826;-1.192;2024-03-08T05:16:34;34.97;;;20.48;;
46755;SDS011;32506;52.826;-1.192;2024-03-08T05:18:59;38.53;;;21.73;;
46755;SDS011;32506;52.826;-1.192;2024-03-08T05:21:25;36.65;;;21.17;;
46755;SDS011;32506;52.826;-1.192;2024-03-08T05:23:51;40.20;;;21.05;;
46755;SDS011;32506;52.826;-1.192;2024-03-08T05:26:19;41.33;;;22.63;;
46755;SDS011;32506;52.826;-1.192;2024-03-08T05:28:47;36.03;;;21.33;;
46755;SDS011;32506;52.826;-1.192;2024-03-08T05:34:13;35.78;;;21.42;;
46755;SDS011;32506;52.826;-1.192;2024-03-08T05:36:43;37.95;;;22.27;;
46755;SDS011;32506;52.826;-1.192;2024-03-08T05:39:10;37.67;;;21.70;;
46755;SDS011;32506;52.826;-1.192;2024-03-08T05:41:37;42.75;;;22.85;;
46755;SDS011;32506;52.826;-1.192;2024-03-08T05:44:04;40.05;;;22.60;;
46755;SDS011;32506;52.826;-1.192;2024-03-08T05:46:33;40.25;;;21.70;;
46755;SDS011;32506;52.826;-1.192;2024-03-08T05:48:59;40.75;;;22.15;;
46755;SDS011;32506;52.826;-1.192;2024-03-08T05:51:24;39.30;;;21.05;;
46755;SDS011;32506;52.826;-1.192;2024-03-08T05:53:53;41.47;;;21.83;;
46755;SDS011;32506;52.826;-1.192;2024-03-08T05:56:24;38.17;;;21.65;;
46755;SDS011;32506;52.826;-1.192;2024-03-08T05:58:50;40.25;;;22.00;;
46755;SDS011;32506;52.826;-1.192;2024-03-08T06:01:15;41.55;;;23.15;;
46755;SDS011;32506;52.826;-1.192;2024-03-08T06:03:41;38.88;;;22.20;;
46755;SDS011;32506;52.826;-1.192;2024-03-08T06:06:13;38.58;;;22.60;;
46755;SDS011;32506;52.826;-1.192;2024-03-08T06:08:40;41.70;;;22.60;;
46755;SDS011;32506;52.826;-1.192;2024-03-08T06:11:08;41.15;;;22.02;;
46755;SDS011;32506;52.826;-1.192;2024-03-08T06:13:36;43.35;;;23.00;;
46755;SDS011;32506;52.826;-1.192;2024-03-08T06:16:02;40.08;;;21.38;;
46755;SDS011;32506;52.826;-1.192;2024-03-08T06:18:33;43.90;;;23.33;;
46755;SDS011;32506;52.826;-1.192;2024-03-08T06:21:07;44.20;;;23.60;;
46755;SDS011;32506;52.826;-1.192;2024-03-08T06:23:44;39.17;;;22.80;;
46755;SDS011;32506;52.826;-1.192;2024-03-08T06:26:09;41.38;;;21.92;;
46755;SDS011;32506;52.826;-1.192;2024-03-08T06:28:35;42.08;;;23.90;;
46755;SDS011;32506;52.826;-1.192;2024-03-08T06:31:01;39.83;;;23.70;;
46755;SDS011;32506;52.826;-1.192;2024-03-08T06:33:27;46.17;;;24.90;;
46755;SDS011;32506;52.826;-1.192;2024-03-08T06:35:54;45.42;;;24.48;;
46755;SDS011;32506;52.826;-1.192;2024-03-08T06:38:25;39.70;;;22.33;;
46755;SDS011;32506;52.826;-1.192;2024-03-08T06:40:53;42.60;;;23.42;;
46755;SDS011;32506;52.826;-1.192;2024-03-08T06:43:19;40.95;;;22.70;;
46755;SDS011;32506;52.826;-1.192;2024-03-08T06:48:32;40.97;;;23.60;;
46755;SDS011;32506;52.826;-1.192;2024-03-08T06:51:06;49.28;;;25.10;;
46755;SDS011;32506;52.826;-1.192;2024-03-08T06:53:32;41.45;;;23.35;;
46755;SDS011;32506;52.826;-1.192;2024-03-08T06:56:00;43.08;;;25.15;;
46755;SDS011;32506;52.826;-1.192;2024-03-08T06:58:26;46.70;;;24.98;;
46755;SDS011;32506;52.826;-1.192;2024-03-08T07:00:51;41.25;;;24.30;;
46755;SDS011;32506;52.826;-1.192;2024-03-08T07:03:17;41.22;;;22.95;;
46755;SDS011;32506;52.826;-1.192;2024-03-08T07:06:01;44.88;;;23.73;;
46755;SDS011;32506;52.826;-1.192;2024-03-08T07:08:27;43.20;;;24.55;;
46755;SDS011;32506;52.826;-1.192;2024-03-08T07:10:53;49.55;;;25.60;;
46755;SDS011;32506;52.826;-1.192;2024-03-08T07:13:19;43.53;;;23.60;;
46755;SDS011;32506;52.826;-1.192;2024-03-08T07:15:45;46.70;;;25.10;;
46755;SDS011;32506;52.826;-1.192;2024-03-08T07:18:11;45.67;;;24.70;;
46755;SDS011;32506;52.826;-1.192;2024-03-08T07:20:40;43.92;;;24.85;;
46755;SDS011;32506;52.826;-1.192;2024-03-08T07:23:06;41.38;;;24.35;;
46755;SDS011;32506;52.826;-1.192;2024-03-08T07:26:08;43.70;;;25.52;;
46755;SDS011;32506;52.826;-1.192;2024-03-08T07:28:36;46.05;;;25.83;;
46755;SDS011;32506;52.826;-1.192;2024-03-08T07:31:05;43.63;;;24.65;;
46755;SDS011;32506;52.826;-1.192;2024-03-08T07:33:42;45.13;;;25.77;;
46755;SDS011;32506;52.826;-1.192;2024-03-08T07:36:07;44.72;;;25.17;;
46755;SDS011;32506;52.826;-1.192;2024-03-08T07:38:33;49.60;;;28.10;;
46755;SDS011;32506;52.826;-1.192;2024-03-08T07:40:59;43.97;;;25.10;;
46755;SDS011;32506;52.826;-1.192;2024-03-08T07:43:25;44.20;;;24.90;;
46755;SDS011;32506;52.826;-1.192;2024-03-08T07:45:51;48.95;;;26.13;;
46755;SDS011;32506;52.826;-1.192;2024-03-08T07:48:18;49.25;;;26.45;;
46755;SDS011;32506;52.826;-1.192;2024-03-08T07:50:45;45.65;;;25.75;;
46755;SDS011;32506;52.826;-1.192;2024-03-08T07:53:11;46.83;;;27.05;;
46755;SDS011;32506;52.826;-1.192;2024-03-08T07:55:40;42.95;;;24.98;;
46755;SDS011;32506;52.826;-1.192;2024-03-08T07:58:07;49.63;;;25.52;;
46755;SDS011;32506;52.826;-1.192;2024-03-08T08:00:36;49.80;;;26.13;;
46755;SDS011;32506;52.826;-1.192;2024-03-08T08:03:04;48.33;;;25.38;;
46755;SDS011;32506;52.826;-1.192;2024-03-08T08:05:30;48.20;;;25.80;;
46755;SDS011;32506;52.826;-1.192;2024-03-08T08:08:01;48.53;;;24.98;;
46755;SDS011;32506;52.826;-1.192;2024-03-08T08:10:36;52.20;;;27.17;;
46755;SDS011;32506;52.826;-1.192;2024-03-08T08:13:03;49.30;;;25.85;;
46755;SDS011;32506;52.826;-1.192;2024-03-08T08:15:31;42.33;;;26.13;;
46755;SDS011;32506;52.826;-1.192;2024-03-08T08:17:59;47.78;;;26.75;;
46755;SDS011;32506;52.826;-1.192;2024-03-08T08:20:25;47.63;;;25.30;;
46755;SDS011;32506;52.826;-1.192;2024-03-08T08:22:53;46.42;;;25.48;;
46755;SDS011;32506;52.826;-1.192;2024-03-08T08:25:20;59.40;;;25.15;;
46755;SDS011;32506;52.826;-1.192;2024-03-08T08:27:50;45.88;;;25.10;;
46755;SDS011;32506;52.826;-1.192;2024-03-08T08:30:19;44.55;;;25.33;;
46755;SDS011;32506;52.826;-1.192;2024-03-08T08:32:45;42.92;;;25.30;;
46755;SDS011;32506;52.826;-1.192;2024-03-08T08:35:12;49.88;;;26.88;;
46755;SDS011;32506;52.826;-1.192;2024-03-08T08:37:57;45.13;;;23.95;;
46755;SDS011;32506;52.826;-1.192;2024-03-08T08:40:48;47.10;;;23.75;;
46755;SDS011;32506;52.826;-1.192;2024-03-08T08:43:19;42.22;;;24.75;;
46755;SDS011;32506;52.826;-1.192;2024-03-08T08:45:49;45.35;;;25.23;;
46755;SDS011;32506;52.826;-1.192;2024-03-08T08:48:21;41.33;;;25.30;;
46755;SDS011;32506;52.826;-1.192;2024-03-08T08:50:47;43.35;;;25.58;;
46755;SDS011;32506;52.826;-1.192;2024-03-08T08:53:15;44.13;;;26.95;;
46755;SDS011;32506;52.826;-1.192;2024-03-08T08:55:42;46.78;;;26.80;;
46755;SDS011;32506;52.826;-1.192;2024-03-08T08:58:10;42.80;;;24.35;;
46755;SDS011;32506;52.826;-1.192;2024-03-08T09:00:47;40.97;;;24.67;;
46755;SDS011;32506;52.826;-1.192;2024-03-08T09:03:15;48.92;;;25.92;;
46755;SDS011;32506;52.826;-1.192;2024-03-08T09:05:42;45.08;;;23.85;;
46755;SDS011;32506;52.826;-1.192;2024-03-08T09:08:17;40.97;;;23.92;;
46755;SDS011;32506;52.826;-1.192;2024-03-08T09:10:43;40.33;;;22.45;;
46755;SDS011;32506;52.826;-1.192;2024-03-08T09:13:08;46.40;;;25.33;;
46755;SDS011;32506;52.826;-1.192;2024-03-08T09:15:44;41.80;;;24.02;;
46755;SDS011;32506;52.826;-1.192;2024-03-08T09:18:16;39.95;;;22.50;;
46755;SDS011;32506;52.826;-1.192;2024-03-08T09:21:00;38.38;;;22.40;;
46755;SDS011;32506;52.826;-1.192;2024-03-08T09:23:31;37.67;;;22.17;;
46755;SDS011;32506;52.826;-1.192;2024-03-08T09:38:34;34.17;;;19.73;;
46755;SDS011;32506;52.826;-1.192;2024-03-08T09:41:03;32.50;;;19.50;;
46755;SDS011;32506;52.826;-1.192;2024-03-08T09:46:08;31.50;;;19.70;;
46755;SDS011;32506;52.826;-1.192;2024-03-08T09:48:35;32.78;;;19.25;;
46755;SDS011;32506;52.826;-1.192;2024-03-08T09:51:03;32.53;;;19.25;;
46755;SDS011;32506;52.826;-1.192;2024-03-08T09:53:43;30.05;;;18.17;;
46755;SDS011;32506;52.826;-1.192;2024-03-08T09:56:11;31.75;;;18.70;;
46755;SDS011;32506;52.826;-1.192;2024-03-08T09:58:39;30.08;;;17.80;;
46755;SDS011;32506;52.826;-1.192;2024-03-08T10:01:44;29.45;;;18.10;;
46755;SDS011;32506;52.826;-1.192;2024-03-08T10:06:47;26.67;;;17.13;;
46755;SDS011;32506;52.826;-1.192;2024-03-08T10:09:13;31.67;;;17.45;;
46755;SDS011;32506;52.826;-1.192;2024-03-08T10:11:42;31.58;;;18.35;;
46755;SDS011;32506;52.826;-1.192;2024-03-08T10:14:08;33.28;;;17.50;;
46755;SDS011;32506;52.826;-1.192;2024-03-08T10:16:35;27.60;;;16.70;;
46755;SDS011;32506;52.826;-1.192;2024-03-08T10:19:01;25.02;;;15.77;;
46755;SDS011;32506;52.826;-1.192;2024-03-08T10:21:31;31.52;;;17.38;;
46755;SDS011;32506;52.826;-1.192;2024-03-08T10:23:58;25.38;;;15.35;;
46755;SDS011;32506;52.826;-1.192;2024-03-08T10:26:24;28.23;;;16.52;;
46755;SDS011;32506;52.826;-1.192;2024-03-08T10:28:51;31.30;;;18.48;;
46755;SDS011;32506;52.826;-1.192;2024-03-08T10:31:20;25.90;;;15.80;;
46755;SDS011;32506;52.826;-1.192;2024-03-08T10:33:46;23.92;;;16.23;;
46755;SDS011;32506;52.826;-1.192;2024-03-08T10:36:13;30.23;;;18.15;;
46755;SDS011;32506;52.826;-1.192;2024-03-08T10:38:51;26.75;;;17.13;;
46755;SDS011;32506;52.826;-1.192;2024-03-08T10:42:11;26.27;;;15.60;;
46755;SDS011;32506;52.826;-1.192;2024-03-08T10:44:58;24.95;;;16.25;;
46755;SDS011;32506;52.826;-1.192;2024-03-08T10:47:40;30.88;;;16.33;;
46755;SDS011;32506;52.826;-1.192;2024-03-08T10:50:18;26.17;;;15.68;;
46755;SDS011;32506;52.826;-1.192;2024-03-08T10:52:56;25.30;;;16.23;;
46755;SDS011;32506;52.826;-1.192;2024-03-08T10:55:33;27.10;;;16.80;;
46755;SDS011;32506;52.826;-1.192;2024-03-08T11:00:53;22.48;;;13.18;;
46755;SDS011;32506;52.826;-1.192;2024-03-08T11:07:10;21.30;;;14.23;;
46755;SDS011;32506;52.826;-1.192;2024-03-08T11:09:42;22.67;;;13.25;;
46755;SDS011;32506;52.826;-1.192;2024-03-08T11:15:01;20.23;;;12.55;;
46755;SDS011;32506;52.826;-1.192;2024-03-08T11:17:58;22.67;;;12.15;;
46755;SDS011;32506;52.826;-1.192;2024-03-08T11:20:27;19.02;;;11.60;;
46755;SDS011;32506;52.826;-1.192;2024-03-08T11:25:50;16.67;;;11.25;;
46755;SDS011;32506;52.826;-1.192;2024-03-08T11:28:26;16.58;;;10.35;;
46755;SDS011;32506;52.826;-1.192;2024-03-08T11:33:24;22.33;;;12.02;;
46755;SDS011;32506;52.826;-1.192;2024-03-08T11:35:58;22.02;;;13.40;;
46755;SDS011;32506;52.826;-1.192;2024-03-08T11:38:43;20.80;;;13.80;;
46755;SDS011;32506;52.826;-1.192;2024-03-08T11:41:23;20.83;;;13.68;;
46755;SDS011;32506;52.826;-1.192;2024-03-08T11:43:50;21.55;;;14.48;;
46755;SDS011;32506;52.826;-1.192;2024-03-08T11:46:30;20.02;;;13.82;;
46755;SDS011;32506;52.826;-1.192;2024-03-08T11:48:56;22.67;;;14.23;;
46755;SDS011;32506;52.826;-1.192;2024-03-08T11:51:25;18.20;;;13.30;;
46755;SDS011;32506;52.826;-1.192;2024-03-08T11:53:50;20.90;;;13.70;;
46755;SDS011;32506;52.826;-1.192;2024-03-08T11:56:37;20.33;;;14.32;;
46755;SDS011;32506;52.826;-1.192;2024-03-08T11:59:03;21.95;;;14.90;;
46755;SDS011;32506;52.826;-1.192;2024-03-08T12:01:56;18.15;;;12.90;;
46755;SDS011;32506;52.826;-1.192;2024-03-08T12:04:44;19.95;;;14.27;;
46755;SDS011;32506;52.826;-1.192;2024-03-08T12:07:38;21.08;;;13.82;;
46755;SDS011;32506;52.826;-1.192;2024-03-08T12:10:16;23.23;;;14.00;;
46755;SDS011;32506;52.826;-1.192;2024-03-08T12:12:44;20.02;;;13.95;;
46755;SDS011;32506;52.826;-1.192;2024-03-08T12:15:21;21.85;;;13.73;;
46755;SDS011;32506;52.826;-1.192;2024-03-08T12:24:27;23.83;;;14.07;;
46755;SDS011;32506;52.826;-1.192;2024-03-08T12:26:57;25.55;;;14.95;;
46755;SDS011;32506;52.826;-1.192;2024-03-08T12:29:27;22.00;;;13.85;;
46755;SDS011;32506;52.826;-1.192;2024-03-08T12:31:57;22.95;;;14.82;;
46755;SDS011;32506;52.826;-1.192;2024-03-08T12:34:27;23.48;;;14.65;;
46755;SDS011;32506;52.826;-1.192;2024-03-08T12:36:57;24.13;;;15.15;;
46755;SDS011;32506;52.826;-1.192;2024-03-08T12:39:29;19.13;;;13.57;;
46755;SDS011;32506;52.826;-1.192;2024-03-08T12:42:05;22.17;;;14.27;;
46755;SDS011;32506;52.826;-1.192;2024-03-08T12:44:34;20.33;;;13.68;;
46755;SDS011;32506;52.826;-1.192;2024-03-08T12:47:08;23.00;;;14.60;;
46755;SDS011;32506;52.826;-1.192;2024-03-08T12:49:41;21.08;;;15.20;;
46755;SDS011;32506;52.826;-1.192;2024-03-08T12:52:20;24.17;;;15.10;;
46755;SDS011;32506;52.826;-1.192;2024-03-08T12:54:48;21.95;;;14.40;;
46755;SDS011;32506;52.826;-1.192;2024-03-08T12:57:19;23.77;;;16.55;;
46755;SDS011;32506;52.826;-1.192;2024-03-08T12:59:45;22.48;;;15.27;;
46755;SDS011;32506;52.826;-1.192;2024-03-08T13:02:10;22.05;;;14.82;;
46755;SDS011;32506;52.826;-1.192;2024-03-08T13:04:39;24.27;;;16.15;;
46755;SDS011;32506;52.826;-1.192;2024-03-08T13:07:14;29.42;;;16.63;;
46755;SDS011;32506;52.826;-1.192;2024-03-08T13:09:43;21.05;;;15.65;;
46755;SDS011;32506;52.826;-1.192;2024-03-08T13:12:22;20.27;;;13.48;;
46755;SDS011;32506;52.826;-1.192;2024-03-08T13:14:59;19.65;;;13.80;;
46755;SDS011;32506;52.826;-1.192;2024-03-08T13:17:32;19.75;;;13.82;;
46755;SDS011;32506;52.826;-1.192;2024-03-08T13:20:07;19.27;;;14.15;;
46755;SDS011;32506;52.826;-1.192;2024-03-08T13:22:41;20.88;;;14.05;;
46755;SDS011;32506;52.826;-1.192;2024-03-08T13:25:09;21.27;;;16.17;;
46755;SDS011;32506;52.826;-1.192;2024-03-08T13:27:40;22.88;;;16.08;;
46755;SDS011;32506;52.826;-1.192;2024-03-08T13:30:26;25.63;;;16.63;;
46755;SDS011;32506;52.826;-1.192;2024-03-08T13:32:52;26.23;;;14.75;;
46755;SDS011;32506;52.826;-1.192;2024-03-08T13:35:25;24.67;;;16.80;;
46755;SDS011;32506;52.826;-1.192;2024-03-08T13:37:52;24.40;;;17.60;;
46755;SDS011;32506;52.826;-1.192;2024-03-08T13:40:20;23.27;;;16.55;;
46755;SDS011;32506;52.826;-1.192;2024-03-08T13:42:48;25.05;;;17.10;;
46755;SDS011;32506;52.826;-1.192;2024-03-08T13:45:14;24.92;;;17.27;;
46755;SDS011;32506;52.826;-1.192;2024-03-08T13:47:54;23.95;;;16.35;;
46755;SDS011;32506;52.826;-1.192;2024-03-08T13:50:22;24.33;;;16.85;;
46755;SDS011;32506;52.826;-1.192;2024-03-08T13:52:48;24.80;;;16.42;;
46755;SDS011;32506;52.826;-1.192;2024-03-08T13:55:19;24.75;;;16.55;;
46755;SDS011;32506;52.826;-1.192;2024-03-08T13:57:47;24.52;;;17.02;;
46755;SDS011;32506;52.826;-1.192;2024-03-08T14:00:13;27.50;;;17.73;;
46755;SDS011;32506;52.826;-1.192;2024-03-08T14:02:40;24.85;;;16.35;;
46755;SDS011;32506;52.826;-1.192;2024-03-08T14:05:09;21.77;;;15.68;;
46755;SDS011;32506;52.826;-1.192;2024-03-08T14:07:38;26.27;;;16.52;;
46755;SDS011;32506;52.826;-1.192;2024-03-08T14:10:04;27.77;;;17.42;;
46755;SDS011;32506;52.826;-1.192;2024-03-08T14:12:32;22.27;;;15.73;;
46755;SDS011;32506;52.826;-1.192;2024-03-08T14:14:58;24.02;;;16.10;;
46755;SDS011;32506;52.826;-1.192;2024-03-08T14:17:25;26.25;;;17.48;;
46755;SDS011;32506;52.826;-1.192;2024-03-08T14:19:52;25.95;;;16.95;;
46755;SDS011;32506;52.826;-1.192;2024-03-08T14:22:18;25.13;;;15.93;;
46755;SDS011;32506;52.826;-1.192;2024-03-08T14:24:45;24.75;;;16.17;;
46755;SDS011;32506;52.826;-1.192;2024-03-08T14:27:10;23.67;;;15.75;;
46755;SDS011;32506;52.826;-1.192;2024-03-08T14:29:37;23.70;;;16.05;;
46755;SDS011;32506;52.826;-1.192;2024-03-08T14:32:06;27.20;;;17.38;;
46755;SDS011;32506;52.826;-1.192;2024-03-08T14:34:33;27.20;;;17.35;;
46755;SDS011;32506;52.826;-1.192;2024-03-08T14:36:59;26.63;;;17.60;;
46755;SDS011;32506;52.826;-1.192;2024-03-08T14:39:25;26.73;;;16.85;;
46755;SDS011;32506;52.826;-1.192;2024-03-08T14:41:54;26.25;;;17.70;;
46755;SDS011;32506;52.826;-1.192;2024-03-08T14:44:21;25.60;;;17.38;;
46755;SDS011;32506;52.826;-1.192;2024-03-08T14:47:00;29.40;;;18.35;;
46755;SDS011;32506;52.826;-1.192;2024-03-08T14:49:25;27.23;;;17.98;;
46755;SDS011;32506;52.826;-1.192;2024-03-08T14:51:54;25.17;;;15.68;;
46755;SDS011;32506;52.826;-1.192;2024-03-08T14:54:19;29.05;;;15.73;;
46755;SDS011;32506;52.826;-1.192;2024-03-08T14:56:48;25.65;;;15.50;;
46755;SDS011;32506;52.826;-1.192;2024-03-08T14:59:15;24.63;;;16.33;;
46755;SDS011;32506;52.826;-1.192;2024-03-08T15:01:41;25.80;;;16.45;;
46755;SDS011;32506;52.826;-1.192;2024-03-08T15:04:09;23.15;;;12.98;;
46755;SDS011;32506;52.826;-1.192;2024-03-08T15:06:38;22.73;;;14.80;;
46755;SDS011;32506;52.826;-1.192;2024-03-08T15:09:07;22.75;;;14.00;;